Time;durP1;ratioP1;P1;durP2;ratioP2;P2;SDS_P1;SDS_P2;PMS_P1;PMS_P2;Temp;Humidity;BMP_temperature;BMP_pressure;BME280_temperature;BME280_humidity;BME280_pressure;Samples;Min_cycle;Max_cycle;Signal;HPM_P1;HPM_P2
2021/01/15 00:00:06;;;;;;;1.88;1.55;;;;;;;18.65;45.10;102494.13;5018558;28;20372;-74
2021/01/15 00:02:32;;;;;;;2.22;1.70;;;;;;;18.62;44.91;102498.41;4983002;28;20357;-74
2021/01/15 00:04:57;;;;;;;5.68;2.10;;;;;;;18.63;44.97;102501.06;5013124;28;20036;-75
2021/01/15 00:07:22;;;;;;;3.38;1.70;;;;;;;18.62;44.90;102504.53;5002158;28;20424;-74
2021/01/15 00:09:48;;;;;;;2.92;1.80;;;;;;;18.62;44.97;102501.91;4993297;28;20030;-74
2021/01/15 00:12:13;;;;;;;2.13;1.63;;;;;;;18.55;44.61;102493.03;5001928;28;20434;-74
2021/01/15 00:14:39;;;;;;;2.05;1.60;;;;;;;18.58;44.75;102502.69;5017849;28;20418;-74
2021/01/15 00:17:06;;;;;;;2.08;1.70;;;;;;;18.57;44.97;102503.50;4982243;28;20036;-74
2021/01/15 00:19:32;;;;;;;1.88;1.63;;;;;;;18.57;44.82;102509.63;5032908;28;20033;-74
2021/01/15 00:21:57;;;;;;;2.08;1.60;;;;;;;18.59;44.76;102512.31;5015747;28;20499;-74
2021/01/15 00:24:22;;;;;;;2.05;1.50;;;;;;;18.59;44.66;102509.69;5017975;28;20475;-74
2021/01/15 00:26:48;;;;;;;2.30;1.67;;;;;;;18.55;44.74;102508.75;5017951;28;20038;-73
2021/01/15 00:29:16;;;;;;;2.58;1.80;;;;;;;18.55;44.95;102521.84;5001856;28;20112;-74
2021/01/15 00:31:46;;;;;;;2.53;2.05;;;;;;;18.55;44.82;102513.09;5035702;28;20530;-74
2021/01/15 00:34:13;;;;;;;3.33;2.10;;;;;;;18.54;44.44;102520.06;5035795;28;20036;-73
2021/01/15 00:36:41;;;;;;;2.08;1.58;;;;;;;18.52;44.79;102520.88;5035605;28;20087;-74
2021/01/15 00:39:08;;;;;;;3.45;2.15;;;;;;;18.52;44.84;102518.25;5001509;28;20041;-74
2021/01/15 00:41:38;;;;;;;1.80;1.40;;;;;;;18.50;44.75;102523.47;5035228;28;20471;-74
2021/01/15 00:44:05;;;;;;;2.08;1.85;;;;;;;18.51;44.86;102529.59;4983023;28;20030;-74
2021/01/15 00:46:33;;;;;;;2.20;1.83;;;;;;;18.51;44.65;102534.81;5017906;28;20033;-74
2021/01/15 00:49:07;;;;;;;1.70;1.58;;;;;;;18.48;44.65;102527.78;5017263;28;20422;-74
2021/01/15 00:51:32;;;;;;;2.75;2.25;;;;;;;18.46;44.64;102528.59;5034835;28;20076;-74
2021/01/15 00:53:58;;;;;;;2.17;1.80;;;;;;;18.48;44.61;102542.63;5034851;28;20037;-74
2021/01/15 00:56:24;;;;;;;2.10;1.58;;;;;;;18.50;44.62;102546.16;5028177;28;20028;-74
2021/01/15 00:58:50;;;;;;;2.47;1.52;;;;;;;18.44;44.65;102541.66;5015461;28;20063;-74
2021/01/15 01:01:17;;;;;;;2.25;1.65;;;;;;;18.46;44.56;102542.56;5041683;28;20032;-74
2021/01/15 01:03:43;;;;;;;2.78;1.65;;;;;;;18.46;44.43;102549.56;5042991;28;20056;-74
2021/01/15 01:06:13;;;;;;;2.70;2.03;;;;;;;18.41;44.34;102544.22;5040132;28;20025;-74
2021/01/15 01:08:39;;;;;;;2.70;1.65;;;;;;;18.42;44.51;102556.47;5035054;28;20025;-74
2021/01/15 01:11:10;;;;;;;2.30;1.52;;;;;;;18.43;44.38;102559.97;5018595;28;20025;-74
2021/01/15 01:13:35;;;;;;;2.03;1.65;;;;;;;18.44;44.49;102572.19;5017836;28;20025;-74
2021/01/15 01:16:00;;;;;;;2.75;1.80;;;;;;;18.44;44.56;102566.97;5017698;28;20467;-74
2021/01/15 01:18:25;;;;;;;2.40;1.85;;;;;;;18.44;44.56;102572.19;5017148;28;20057;-74
2021/01/15 01:20:51;;;;;;;2.35;2.03;;;;;;;18.41;44.54;102573.03;5000999;28;20029;-74
2021/01/15 01:23:16;;;;;;;2.50;2.03;;;;;;;18.41;44.06;102577.41;5035046;28;20036;-74
2021/01/15 01:25:42;;;;;;;2.40;1.85;;;;;;;18.42;44.40;102581.78;5016131;28;20400;-74
2021/01/15 01:28:08;;;;;;;2.53;2.03;;;;;;;18.40;44.52;102581.75;5000549;28;20099;-74
2021/01/15 01:30:33;;;;;;;3.15;2.05;;;;;;;18.40;44.56;102589.59;5034564;28;20057;-74
2021/01/15 01:32:58;;;;;;;2.42;1.88;;;;;;;18.35;44.16;102585.97;4997334;28;20530;-74
2021/01/15 01:35:24;;;;;;;2.67;1.85;;;;;;;18.37;44.46;102596.50;4991886;28;20028;-74
2021/01/15 01:37:49;;;;;;;2.40;2.03;;;;;;;18.38;44.27;102604.41;5000536;28;20487;-74
2021/01/15 01:40:15;;;;;;;2.83;2.10;;;;;;;18.34;44.04;102602.53;5034372;28;20120;-74
2021/01/15 01:42:41;;;;;;;3.03;1.85;;;;;;;18.37;44.53;102620.06;5034288;28;20029;-74
2021/01/15 01:45:07;;;;;;;2.55;1.73;;;;;;;18.36;44.21;102615.69;5010560;28;20477;-74
2021/01/15 01:47:32;;;;;;;2.83;2.05;;;;;;;18.37;44.26;102617.44;5030467;28;20483;-74
2021/01/15 01:49:57;;;;;;;2.85;2.30;;;;;;;18.33;44.02;102616.50;5016588;28;20136;-74
2021/01/15 01:52:24;;;;;;;2.75;2.17;;;;;;;18.34;44.16;102628.75;5000343;28;20472;-74
2021/01/15 01:54:51;;;;;;;2.83;2.20;;;;;;;18.35;44.41;102630.50;5000315;28;20039;-74
2021/01/15 01:57:17;;;;;;;2.75;2.00;;;;;;;18.34;44.40;102633.09;5024940;28;20021;-74
2021/01/15 01:59:42;;;;;;;2.38;1.75;;;;;;;18.30;44.18;102628.66;4996550;28;20410;-74
2021/01/15 02:02:09;;;;;;;2.35;1.73;;;;;;;18.31;44.44;102630.38;5014476;28;20053;-74
2021/01/15 02:04:35;;;;;;;2.42;2.20;;;;;;;18.31;44.38;102635.63;4980973;28;20025;-74
2021/01/15 02:07:00;;;;;;;2.42;1.60;;;;;;;18.29;44.34;102633.00;4989966;28;20041;-74
2021/01/15 02:09:44;;;;;;;2.47;1.95;;;;;;;18.29;44.43;102640.84;5016231;28;20095;-74
2021/01/15 02:12:20;;;;;;;3.10;2.15;;;;;;;18.30;44.13;102639.13;5033501;28;20045;-74
2021/01/15 02:15:15;;;;;;;3.67;2.10;;;;;;;18.29;44.26;102650.44;5033610;28;20383;-74
2021/01/15 02:17:50;;;;;;;2.55;1.98;;;;;;;18.26;44.09;102642.50;5014234;28;20026;-74
2021/01/15 02:20:24;;;;;;;2.20;1.85;;;;;;;18.27;44.14;102652.13;5014151;28;20022;-74
2021/01/15 02:23:20;;;;;;;2.80;2.13;;;;;;;18.26;44.02;102656.50;5014026;28;20030;-74
2021/01/15 02:26:21;;;;;;;2.50;1.90;;;;;;;18.26;44.06;102648.63;5014226;28;20036;-74
2021/01/15 02:28:52;;;;;;;2.38;1.90;;;;;;;18.25;43.92;102649.47;5021902;28;20416;-73
2021/01/15 02:31:45;;;;;;;2.63;2.42;;;;;;;18.24;43.84;102658.19;4996529;28;20034;-74
2021/01/15 02:34:22;;;;;;;3.17;1.85;;;;;;;18.25;44.09;102659.94;5007556;28;20423;-74
2021/01/15 02:36:58;;;;;;;2.50;2.20;;;;;;;18.24;44.01;102659.91;5033338;28;20029;-74
2021/01/15 02:39:38;;;;;;;2.10;1.70;;;;;;;18.22;44.18;102662.47;5013811;28;20451;-74
2021/01/15 02:42:06;;;;;;;2.95;2.10;;;;;;;18.20;43.91;102654.59;5024510;28;20088;-74
2021/01/15 02:44:32;;;;;;;2.90;1.75;;;;;;;18.23;43.94;102661.63;5033603;28;20064;-73
2021/01/15 02:47:00;;;;;;;2.53;1.90;;;;;;;18.20;44.17;102659.81;5033282;28;20065;-74
2021/01/15 02:49:26;;;;;;;2.65;1.95;;;;;;;18.20;44.03;102653.69;5012547;28;20033;-74
2021/01/15 02:51:53;;;;;;;2.88;2.10;;;;;;;18.16;43.83;102652.75;5006244;28;20054;-74
2021/01/15 02:54:18;;;;;;;2.20;1.80;;;;;;;18.19;43.76;102654.53;5032946;28;20489;-74
2021/01/15 02:56:44;;;;;;;2.08;1.70;;;;;;;18.18;44.00;102652.78;5033404;28;20140;-73
2021/01/15 02:59:09;;;;;;;2.60;2.10;;;;;;;18.18;43.71;102663.25;4999393;28;20029;-73
2021/01/15 03:01:46;;;;;;;2.67;2.30;;;;;;;18.19;44.02;102667.63;5015681;28;20057;-74
2021/01/15 03:04:20;;;;;;;2.58;2.08;;;;;;;18.15;43.69;102666.69;5014332;28;20091;-74
2021/01/15 03:06:58;;;;;;;2.42;1.73;;;;;;;18.19;44.04;102679.00;5014767;28;20356;-74
2021/01/15 03:09:29;;;;;;;2.70;2.28;;;;;;;18.16;43.74;102671.09;5031491;28;20155;-74
2021/01/15 03:11:56;;;;;;;2.58;2.05;;;;;;;18.15;43.75;102673.66;5014868;28;20029;-74
2021/01/15 03:14:22;;;;;;;2.65;1.95;;;;;;;18.14;44.00;102675.41;5032122;28;20025;-69
2021/01/15 03:16:50;;;;;;;3.00;2.10;;;;;;;18.11;43.48;102674.41;5017551;28;20135;-74
2021/01/15 03:19:15;;;;;;;2.47;2.13;;;;;;;18.15;43.98;102676.28;5011227;28;20045;-73
2021/01/15 03:21:44;;;;;;;2.10;1.80;;;;;;;18.12;43.93;102674.47;5024334;28;20033;-69
2021/01/15 03:24:09;;;;;;;2.67;2.13;;;;;;;18.10;44.09;102675.28;5016567;28;20031;-68
2021/01/15 03:26:35;;;;;;;2.90;2.45;;;;;;;18.09;43.75;102677.00;5004903;28;20120;-68
2021/01/15 03:29:01;;;;;;;1.88;1.45;;;;;;;18.09;43.75;102679.63;4997981;28;20038;-69
2021/01/15 03:31:27;;;;;;;3.33;1.70;;;;;;;18.13;43.96;102691.06;4998121;28;20029;-69
2021/01/15 03:33:52;;;;;;;3.25;2.40;;;;;;;18.13;43.54;102693.69;5010100;28;20116;-69
2021/01/15 03:36:20;;;;;;;2.03;1.63;;;;;;;18.15;43.79;102690.25;5014207;28;20480;-69
2021/01/15 03:38:46;;;;;;;3.70;2.05;;;;;;;18.20;43.88;102691.25;5013577;28;20025;-69
2021/01/15 03:41:11;;;;;;;2.35;1.90;;;;;;;18.32;43.77;102695.91;5015014;28;20048;-69
2021/01/15 03:43:37;;;;;;;2.53;2.05;;;;;;;18.30;43.71;102689.78;5032861;28;20430;-69
2021/01/15 03:46:02;;;;;;;2.35;2.10;;;;;;;18.31;43.69;102691.50;5031284;28;20364;-69
2021/01/15 03:48:27;;;;;;;3.25;2.08;;;;;;;18.38;43.56;102689.94;5006967;28;20422;-69
2021/01/15 03:50:53;;;;;;;2.17;1.83;;;;;;;18.42;43.51;102694.44;5017420;28;20124;-69
2021/01/15 03:53:19;;;;;;;2.13;1.75;;;;;;;18.41;43.47;102696.16;5014734;28;20041;-69
2021/01/15 03:55:45;;;;;;;1.60;1.50;;;;;;;18.40;43.65;102698.75;5015267;28;20428;-68
2021/01/15 03:58:11;;;;;;;2.55;2.05;;;;;;;18.49;43.33;102704.19;5035041;28;20087;-69
2021/01/15 04:00:36;;;;;;;2.30;1.77;;;;;;;18.47;43.41;102698.03;5018068;28;20029;-69
2021/01/15 04:03:01;;;;;;;2.33;1.60;;;;;;;18.49;43.59;102710.31;5016858;28;20034;-69
2021/01/15 04:05:27;;;;;;;2.35;1.98;;;;;;;18.48;43.62;102705.03;5017803;28;20479;-68
2021/01/15 04:07:52;;;;;;;2.10;1.80;;;;;;;18.52;43.50;102702.53;5001380;28;20040;-68
2021/01/15 04:10:19;;;;;;;2.00;1.60;;;;;;;18.56;43.65;102711.38;5016882;28;20095;-68
2021/01/15 04:12:45;;;;;;;2.35;1.50;;;;;;;18.50;43.65;102708.59;5016956;28;20078;-69
2021/01/15 04:15:15;;;;;;;2.55;2.03;;;;;;;18.55;43.59;102701.72;5034176;28;20112;-69
2021/01/15 04:17:41;;;;;;;1.85;1.58;;;;;;;18.60;43.66;102701.84;5035947;28;20041;-69
2021/01/15 04:20:08;;;;;;;2.60;1.80;;;;;;;18.57;43.52;102694.78;5034195;28;20029;-69
2021/01/15 04:22:38;;;;;;;2.50;1.95;;;;;;;18.57;43.38;102694.78;5015477;28;20029;-69
2021/01/15 04:25:05;;;;;;;2.75;2.25;;;;;;;18.58;43.60;102693.97;5034825;28;20032;-68
2021/01/15 04:27:31;;;;;;;2.30;1.67;;;;;;;18.60;43.54;102696.63;5020220;28;20025;-68
2021/01/15 04:29:57;;;;;;;2.70;1.90;;;;;;;18.57;43.57;102700.00;5031388;28;20172;-68
2021/01/15 04:32:23;;;;;;;2.30;1.42;;;;;;;18.59;43.60;102702.69;5033693;28;20179;-68
2021/01/15 04:34:48;;;;;;;2.75;1.60;;;;;;;18.61;43.65;102707.13;5016017;28;20067;-68
2021/01/15 04:37:14;;;;;;;2.60;1.83;;;;;;;18.63;43.80;102712.41;5016648;28;20707;-68
2021/01/15 04:39:39;;;;;;;2.00;1.42;;;;;;;18.62;43.41;102722.00;5017334;28;20526;-68
2021/01/15 04:42:05;;;;;;;1.85;1.65;;;;;;;18.65;43.48;102715.97;5032864;28;20400;-68
2021/01/15 04:44:31;;;;;;;3.00;1.42;;;;;;;18.65;43.63;102723.84;5034445;28;20049;-68
2021/01/15 04:46:57;;;;;;;1.77;1.42;;;;;;;18.61;43.47;102717.63;5034739;28;20029;-69
2021/01/15 04:49:26;;;;;;;1.92;1.35;;;;;;;18.66;43.69;102720.38;5033957;28;20025;-68
2021/01/15 04:51:56;;;;;;;2.53;1.83;;;;;;;18.67;43.62;102717.78;5032624;28;20030;-68
2021/01/15 04:54:34;;;;;;;1.95;1.52;;;;;;;18.66;43.56;102721.25;5034991;28;20029;-68
2021/01/15 04:57:04;;;;;;;2.05;1.80;;;;;;;18.65;43.50;102726.44;5033392;28;20083;-68
2021/01/15 04:59:33;;;;;;;1.80;1.48;;;;;;;18.68;43.29;102732.66;5034969;28;20032;-68
2021/01/15 05:02:06;;;;;;;2.65;1.65;;;;;;;18.66;43.36;102720.38;5032975;28;20126;-68
2021/01/15 05:04:32;;;;;;;1.30;1.20;;;;;;;18.66;43.51;102731.72;5032041;28;20418;-68
2021/01/15 05:07:03;;;;;;;2.05;1.30;;;;;;;18.69;43.61;102730.94;5000251;28;20040;-68
2021/01/15 05:09:40;;;;;;;2.00;1.50;;;;;;;18.68;43.52;102722.19;5033225;28;20454;-69
2021/01/15 05:12:16;;;;;;;2.55;1.63;;;;;;;18.68;43.45;102723.91;5033414;28;20029;-68
2021/01/15 05:14:43;;;;;;;2.38;1.83;;;;;;;18.71;43.49;102739.69;5004853;28;20033;-69
2021/01/15 05:17:08;;;;;;;2.08;1.35;;;;;;;18.73;43.17;102740.63;5000251;28;20083;-74
2021/01/15 05:19:41;;;;;;;2.00;1.27;;;;;;;18.71;43.55;102737.94;5000830;28;20026;-73
2021/01/15 05:22:08;;;;;;;2.58;1.65;;;;;;;18.70;43.36;102748.38;5034551;28;20445;-74
2021/01/15 05:24:34;;;;;;;1.92;1.50;;;;;;;18.74;43.22;102751.13;5017261;28;20091;-74
2021/01/15 05:30:17;;;;;;;1.85;1.52;;;;;;;18.71;43.50;102753.69;5033864;28;20044;-74
2021/01/15 05:32:45;;;;;;;3.10;1.63;;;;;;;18.76;43.35;102765.16;5033891;28;20049;-74
2021/01/15 05:35:12;;;;;;;2.22;1.58;;;;;;;18.75;43.22;102763.41;5017995;28;20021;-74
2021/01/15 05:37:37;;;;;;;2.60;1.80;;;;;;;18.71;43.30;102761.53;5037422;28;20022;-73
2021/01/15 05:40:04;;;;;;;2.42;1.73;;;;;;;18.81;43.08;102770.53;5016646;28;20033;-73
2021/01/15 05:42:30;;;;;;;1.88;1.40;;;;;;;18.89;42.98;102777.72;5004017;28;20021;-77
2021/01/15 05:45:17;;;;;;;3.03;1.70;;;;;;;18.89;42.86;102771.59;5034773;28;20089;-74
2021/01/15 05:47:46;;;;;;;2.13;1.50;;;;;;;18.93;43.23;102768.22;5016470;28;20037;-78
2021/01/15 05:50:15;;;;;;;2.83;1.98;;;;;;;19.02;42.90;102776.28;5012954;28;20480;-75
2021/01/15 05:52:53;;;;;;;2.35;1.65;;;;;;;18.99;43.02;102777.94;5014163;28;20026;-74
2021/01/15 05:55:19;;;;;;;3.97;1.85;;;;;;;19.00;43.04;102779.72;5014448;28;20026;-74
2021/01/15 05:57:47;;;;;;;1.98;1.58;;;;;;;19.04;42.98;102799.91;4996898;28;20037;-73
2021/01/15 06:00:32;;;;;;;2.55;1.90;;;;;;;19.03;42.61;102796.41;5006311;28;20037;-75
2021/01/15 06:02:58;;;;;;;2.00;1.52;;;;;;;19.00;42.89;102798.94;4999730;28;20014;-74
2021/01/15 06:05:24;;;;;;;1.65;1.35;;;;;;;19.03;42.87;102793.78;5014460;28;20041;-73
2021/01/15 06:07:54;;;;;;;4.32;1.95;;;;;;;18.99;42.83;102798.91;5012461;28;20053;-74
2021/01/15 06:10:20;;;;;;;4.93;1.60;;;;;;;18.97;42.91;102798.88;5013361;28;20034;-74
2021/01/15 06:12:45;;;;;;;2.33;1.70;;;;;;;19.01;42.89;102791.97;5011518;28;20034;-74
2021/01/15 06:15:11;;;;;;;2.10;1.52;;;;;;;19.05;43.04;102804.31;4990682;28;20442;-74
2021/01/15 06:17:40;;;;;;;3.13;1.85;;;;;;;19.01;43.02;102799.84;5007368;28;20391;-78
2021/01/15 06:20:07;;;;;;;3.75;1.95;;;;;;;18.98;43.16;102812.88;5013133;28;20026;-74
2021/01/15 06:22:49;;;;;;;5.18;2.05;;;;;;;18.98;43.40;102798.03;5021164;28;20046;-74
2021/01/15 06:25:34;;;;;;;3.15;1.85;;;;;;;18.96;43.66;102804.97;5023819;28;20052;-75
2021/01/15 06:28:04;;;;;;;5.60;1.70;;;;;;;18.92;43.62;102803.13;4987378;28;20093;-75
2021/01/15 06:30:31;;;;;;;2.97;1.50;;;;;;;18.95;43.70;102812.81;5007307;28;20073;-75
2021/01/15 06:33:07;;;;;;;4.30;1.83;;;;;;;18.95;43.51;102816.31;5013581;28;20037;-75
2021/01/15 06:35:38;;;;;;;4.68;1.85;;;;;;;18.91;43.69;102807.50;5012651;28;20496;-76
2021/01/15 06:38:04;;;;;;;3.45;1.83;;;;;;;18.94;43.85;102818.91;5002125;28;20030;-75
2021/01/15 06:40:31;;;;;;;3.83;1.60;;;;;;;18.96;43.57;102814.56;5007951;28;20026;-76
2021/01/15 06:42:59;;;;;;;2.47;1.73;;;;;;;18.94;43.48;102816.28;5011965;28;20034;-76
2021/01/15 06:45:24;;;;;;;4.00;2.47;;;;;;;18.89;43.44;102811.81;5012038;28;20140;-69
2021/01/15 06:47:54;;;;;;;3.55;2.40;;;;;;;18.96;43.37;102825.03;4995894;28;20120;-69
2021/01/15 06:50:20;;;;;;;3.05;1.48;;;;;;;18.92;43.51;102821.50;5017551;28;20138;-69
2021/01/15 06:52:50;;;;;;;2.95;1.50;;;;;;;18.90;43.31;102824.06;5013657;28;20132;-69
2021/01/15 06:55:18;;;;;;;2.92;2.25;;;;;;;18.96;43.26;102825.94;5032384;28;20110;-69
2021/01/15 06:57:49;;;;;;;2.78;1.85;;;;;;;18.92;43.11;102824.09;5032386;28;20502;-69
2021/01/15 07:00:21;;;;;;;2.35;1.50;;;;;;;18.94;43.18;102837.25;5015387;28;20021;-68
2021/01/15 07:02:55;;;;;;;3.00;1.90;;;;;;;18.97;43.10;102839.94;5035750;28;20383;-68
2021/01/15 07:05:25;;;;;;;1.92;1.45;;;;;;;18.95;42.92;102839.03;5032353;28;20109;-69
2021/01/15 07:07:53;;;;;;;2.75;1.70;;;;;;;18.96;43.10;102846.03;5013925;28;20022;-76
2021/01/15 07:10:18;;;;;;;1.70;1.38;;;;;;;18.98;43.14;102847.84;5031732;28;20387;-76
2021/01/15 07:12:44;;;;;;;4.00;2.10;;;;;;;19.00;43.05;102834.78;5031657;28;20026;-76
2021/01/15 07:15:16;;;;;;;2.20;1.73;;;;;;;18.95;42.92;102842.53;5032935;28;20029;-76
2021/01/15 07:17:46;;;;;;;2.78;1.90;;;;;;;18.95;43.04;102839.03;5021148;28;20025;-74
2021/01/15 07:20:14;;;;;;;2.60;1.90;;;;;;;19.00;42.83;102855.75;5032974;28;20061;-75
2021/01/15 07:22:50;;;;;;;2.25;1.67;;;;;;;18.95;43.05;102853.03;5012045;28;20087;-74
2021/01/15 07:25:16;;;;;;;1.98;1.63;;;;;;;18.96;42.71;102861.75;5034915;28;20029;-74
2021/01/15 07:27:42;;;;;;;3.05;2.35;;;;;;;18.98;42.64;102862.69;5017413;28;21921;-75
2021/01/15 07:30:20;;;;;;;2.30;1.67;;;;;;;18.99;42.80;102869.69;5035875;28;20033;-75
2021/01/15 07:32:49;;;;;;;4.53;1.40;;;;;;;18.96;42.72;102873.13;5018215;28;20025;-75
2021/01/15 07:35:16;;;;;;;1.88;1.60;;;;;;;18.96;42.69;102867.00;5036052;28;20025;-75
2021/01/15 07:37:42;;;;;;;1.92;1.63;;;;;;;19.00;42.70;102879.34;5035960;28;20380;-75
2021/01/15 07:40:08;;;;;;;3.72;2.50;;;;;;;18.97;42.74;102884.50;5018596;28;20032;-75
2021/01/15 07:42:39;;;;;;;2.17;1.73;;;;;;;19.00;42.67;102882.84;5018135;28;20022;-75
2021/01/15 07:45:06;;;;;;;1.90;1.50;;;;;;;19.01;42.63;102881.13;5036090;28;20040;-75
2021/01/15 07:47:37;;;;;;;1.70;1.27;;;;;;;18.94;42.46;102884.44;5013183;28;20495;-75
2021/01/15 07:50:06;;;;;;;2.25;1.67;;;;;;;18.88;42.68;102878.19;5019060;28;20041;-75
2021/01/15 07:52:33;;;;;;;2.25;1.63;;;;;;;18.90;42.93;102889.59;5033593;28;20067;-75
2021/01/15 07:55:00;;;;;;;3.78;1.98;;;;;;;18.87;42.73;102889.53;5035923;28;20472;-75
2021/01/15 07:57:30;;;;;;;3.92;2.17;;;;;;;18.90;42.90;102894.84;5034036;28;21815;-75
2021/01/15 07:59:57;;;;;;;3.10;2.42;;;;;;;18.97;42.62;102897.63;5031596;28;20083;-74
2021/01/15 08:02:23;;;;;;;7.43;1.92;;;;;;;18.99;42.82;102903.78;5000767;28;20044;-74
2021/01/15 08:04:49;;;;;;;2.45;2.10;;;;;;;18.97;43.01;102909.00;5031376;28;20526;-75
2021/01/15 08:07:37;;;;;;;1.85;1.63;;;;;;;18.99;42.77;102901.16;5036981;28;20025;-74
2021/01/15 08:10:08;;;;;;;3.08;2.05;;;;;;;18.99;42.54;102899.44;4995352;28;20052;-74
2021/01/15 08:12:40;;;;;;;2.50;1.83;;;;;;;18.99;42.67;102909.03;5036387;28;20135;-69
2021/01/15 08:15:28;;;;;;;4.22;2.13;;;;;;;19.02;42.71;102914.38;5017847;28;20037;-69
2021/01/15 08:17:53;;;;;;;4.85;2.22;;;;;;;19.01;42.55;102910.84;5031637;28;20034;-69
2021/01/15 08:20:19;;;;;;;3.67;2.30;;;;;;;19.01;42.67;102915.22;5034170;28;20495;-70
2021/01/15 08:22:47;;;;;;;2.92;2.22;;;;;;;19.02;42.60;102920.50;5014576;28;20559;-69
2021/01/15 08:25:23;;;;;;;4.38;2.13;;;;;;;19.05;42.50;102917.06;5036766;28;20064;-69
2021/01/15 08:27:48;;;;;;;3.33;1.98;;;;;;;19.04;42.46;102923.16;5017884;28;20523;-69
2021/01/15 08:30:14;;;;;;;3.63;2.10;;;;;;;19.03;42.64;102924.91;5034654;28;20029;-70
2021/01/15 08:32:40;;;;;;;3.13;2.08;;;;;;;19.00;42.62;102914.31;5034543;28;20545;-70
2021/01/15 08:35:06;;;;;;;2.65;2.03;;;;;;;19.04;42.22;102923.16;4982215;28;20486;-70
2021/01/15 08:37:31;;;;;;;3.28;2.03;;;;;;;19.01;42.58;102920.44;5034272;28;20037;-70
2021/01/15 08:39:56;;;;;;;3.53;2.03;;;;;;;19.08;42.54;102932.88;5016881;28;20032;-69
2021/01/15 08:42:22;;;;;;;5.10;1.88;;;;;;;19.09;42.34;102929.38;5003621;28;20029;-70
2021/01/15 08:44:50;;;;;;;3.63;2.05;;;;;;;19.06;42.49;102932.84;5006064;28;20030;-70
2021/01/15 08:47:20;;;;;;;2.10;1.58;;;;;;;19.05;42.50;102927.56;5016597;28;20045;-69
2021/01/15 08:49:55;;;;;;;2.97;1.95;;;;;;;19.07;42.50;102923.25;5033502;28;20104;-70
2021/01/15 08:52:23;;;;;;;2.05;1.60;;;;;;;19.03;42.28;102926.63;5035176;28;20073;-69
2021/01/15 08:54:49;;;;;;;4.03;2.28;;;;;;;19.09;42.43;102939.88;5018058;28;20476;-69
2021/01/15 08:57:18;;;;;;;2.28;1.90;;;;;;;19.10;42.18;102939.03;5016839;28;20041;-69
2021/01/15 08:59:44;;;;;;;3.33;2.20;;;;;;;19.10;42.28;102944.28;5031764;28;20491;-69
2021/01/15 09:02:10;;;;;;;2.65;1.90;;;;;;;19.11;42.57;102948.69;5015585;28;20120;-69
2021/01/15 09:04:36;;;;;;;2.58;1.95;;;;;;;19.12;42.27;102943.47;5029501;28;20065;-70
2021/01/15 09:07:07;;;;;;;3.22;2.00;;;;;;;19.09;42.10;102950.38;4998174;28;20124;-69
2021/01/15 09:09:34;;;;;;;2.50;1.90;;;;;;;19.11;42.43;102944.31;5032433;28;20033;-69
2021/01/15 09:12:05;;;;;;;4.15;2.30;;;;;;;19.15;42.26;102946.19;5029609;28;20475;-70
2021/01/15 09:14:35;;;;;;;4.93;2.33;;;;;;;19.14;42.22;102948.75;5034877;28;20029;-69
2021/01/15 09:17:05;;;;;;;2.35;1.77;;;;;;;19.10;42.42;102957.38;5009600;28;20051;-69
2021/01/15 09:19:30;;;;;;;3.60;2.55;;;;;;;19.14;42.18;102949.66;5024732;28;20050;-70
2021/01/15 09:22:01;;;;;;;3.92;2.17;;;;;;;19.15;42.10;102958.41;5009636;28;20025;-69
2021/01/15 09:24:28;;;;;;;3.50;2.22;;;;;;;19.12;42.09;102955.69;5014866;28;20119;-69
2021/01/15 09:27:03;;;;;;;2.63;1.83;;;;;;;19.06;42.47;102955.56;5044632;28;20040;-69
2021/01/15 09:29:29;;;;;;;3.05;1.88;;;;;;;19.04;42.42;102960.75;5029184;28;20079;-69
2021/01/15 09:31:55;;;;;;;2.53;1.77;;;;;;;19.03;42.42;102972.09;5016874;28;20037;-69
2021/01/15 09:34:23;;;;;;;2.42;2.22;;;;;;;19.01;42.32;102975.50;5013349;28;20044;-69
2021/01/15 09:36:50;;;;;;;4.15;2.47;;;;;;;18.98;42.25;102981.56;5033332;28;20075;-69
2021/01/15 09:39:18;;;;;;;3.42;2.17;;;;;;;18.97;42.43;102989.38;5033561;28;20039;-69
2021/01/15 09:41:48;;;;;;;3.13;2.17;;;;;;;18.90;42.41;102980.47;5016111;28;20091;-70
2021/01/15 09:44:16;;;;;;;3.20;2.38;;;;;;;18.91;42.61;102984.88;5013800;28;20544;-69
2021/01/15 09:46:41;;;;;;;2.90;2.00;;;;;;;18.89;42.47;102987.44;5031261;28;20083;-70
2021/01/15 09:49:07;;;;;;;3.00;2.28;;;;;;;18.87;42.44;102989.13;4999704;28;20033;-69
2021/01/15 09:51:33;;;;;;;1.95;1.67;;;;;;;18.86;42.56;102989.09;5011579;28;20112;-69
2021/01/15 09:53:58;;;;;;;3.28;2.42;;;;;;;18.85;42.53;103001.31;5012797;28;20017;-74
2021/01/15 09:56:33;;;;;;;2.78;2.08;;;;;;;18.85;42.37;103014.41;5013716;28;20554;-75
2021/01/15 09:58:59;;;;;;;2.58;2.35;;;;;;;18.84;42.44;103019.63;5008164;28;20037;-75
2021/01/15 10:01:26;;;;;;;3.08;2.50;;;;;;;18.81;42.53;103020.44;5013587;28;20037;-74
2021/01/15 10:03:52;;;;;;;2.90;2.30;;;;;;;18.81;42.39;103017.81;5012739;28;20033;-74
2021/01/15 10:06:18;;;;;;;3.28;2.63;;;;;;;18.78;42.29;103019.47;4990643;28;20085;-74
2021/01/15 10:08:45;;;;;;;3.17;2.60;;;;;;;18.76;42.27;103016.78;5013130;28;20029;-74
2021/01/15 10:11:19;;;;;;;2.90;2.45;;;;;;;18.74;42.11;103014.97;5012586;28;20026;-74
2021/01/15 10:13:44;;;;;;;3.17;2.47;;;;;;;18.76;42.21;103021.16;5013461;28;20538;-75
2021/01/15 10:16:09;;;;;;;4.78;2.20;;;;;;;18.75;42.19;103016.75;5004221;28;20042;-75
2021/01/15 10:18:35;;;;;;;2.80;2.25;;;;;;;18.73;42.17;103021.94;5012670;28;20076;-75
2021/01/15 10:21:00;;;;;;;2.42;2.10;;;;;;;18.74;42.22;103023.72;4994961;28;20072;-75
2021/01/15 10:23:25;;;;;;;3.17;2.25;;;;;;;18.71;42.15;103017.50;5012032;28;20168;-75
2021/01/15 10:25:51;;;;;;;2.22;2.03;;;;;;;18.72;42.36;103027.13;5010671;28;20053;-75
2021/01/15 10:28:16;;;;;;;2.50;2.30;;;;;;;18.69;42.26;103024.44;5007946;28;20062;-75
2021/01/15 10:30:45;;;;;;;2.78;2.10;;;;;;;18.70;42.29;103032.31;5011725;28;20578;-75
2021/01/15 10:33:11;;;;;;;2.70;1.88;;;;;;;18.71;42.16;103033.22;5014544;28;20018;-75
2021/01/15 10:35:36;;;;;;;3.92;2.08;;;;;;;18.69;42.17;103030.59;5014618;28;20526;-75
2021/01/15 10:38:01;;;;;;;3.00;2.53;;;;;;;18.66;42.12;103030.47;5015883;28;20030;-75
2021/01/15 10:40:27;;;;;;;3.60;2.47;;;;;;;18.67;42.12;103032.25;4999668;28;20052;-75
2021/01/15 10:42:53;;;;;;;3.55;2.35;;;;;;;18.67;42.11;103029.66;4997584;28;20113;-75
2021/01/15 10:45:18;;;;;;;2.58;1.75;;;;;;;18.62;42.04;103027.72;5016297;28;20070;-74
2021/01/15 10:47:44;;;;;;;2.50;2.00;;;;;;;18.65;42.10;103030.44;5013383;28;20033;-74
2021/01/15 10:50:11;;;;;;;2.92;2.47;;;;;;;18.65;42.12;103030.44;5013993;28;20041;-75
2021/01/15 10:52:37;;;;;;;3.20;2.55;;;;;;;18.65;42.19;103033.94;5016278;28;20121;-75
2021/01/15 10:55:03;;;;;;;3.70;2.33;;;;;;;18.63;42.13;103032.13;5033026;28;20140;-75
2021/01/15 10:57:28;;;;;;;4.03;2.28;;;;;;;18.64;42.10;103039.13;5032286;28;20025;-75
2021/01/15 10:59:54;;;;;;;3.05;2.28;;;;;;;18.64;42.16;103042.66;5031973;28;20029;-76
2021/01/15 11:02:19;;;;;;;3.45;2.30;;;;;;;18.67;42.24;103040.13;4998842;28;20041;-75
2021/01/15 11:04:44;;;;;;;3.33;2.15;;;;;;;18.76;42.36;103043.00;5032744;28;20064;-75
2021/01/15 11:07:10;;;;;;;2.78;2.30;;;;;;;18.83;42.08;103042.31;5015586;28;20033;-75
2021/01/15 11:09:35;;;;;;;2.72;2.08;;;;;;;18.78;41.88;103041.31;5032255;28;20029;-74
2021/01/15 11:12:00;;;;;;;2.53;2.33;;;;;;;18.76;42.16;103040.38;4998213;28;20032;-74
2021/01/15 11:14:26;;;;;;;3.33;2.63;;;;;;;18.68;42.27;103033.16;5033074;28;20044;-74
2021/01/15 11:16:53;;;;;;;3.40;2.30;;;;;;;18.67;42.71;103034.00;5015266;28;20021;-74
2021/01/15 11:19:18;;;;;;;3.58;2.55;;;;;;;18.68;42.56;103046.25;5032857;28;20388;-75
2021/01/15 11:21:43;;;;;;;4.82;2.30;;;;;;;18.66;42.70;103042.69;5032487;28;20021;-74
2021/01/15 11:24:10;;;;;;;4.45;2.35;;;;;;;18.67;42.80;103045.38;5032355;28;20053;-74
2021/01/15 11:26:36;;;;;;;3.40;2.90;;;;;;;18.72;42.71;103043.75;5031913;28;20029;-75
2021/01/15 11:29:04;;;;;;;5.13;2.97;;;;;;;18.76;42.61;103036.88;5018207;28;20037;-75
2021/01/15 11:31:30;;;;;;;3.80;2.47;;;;;;;18.83;42.74;103041.44;5031917;28;20097;-74